Elizabeth, West Virginia
Current Conditions -  °F | °C
As of 5:53 AM on Thursday 27 Nov 2014 (Local Time) from KPKB Reporting Station
Haze Haze  
Wind Chill: 29°   Ceiling: 800
Heat Index: 34°   Visibility: 5mi
Dew Point: 31°   Wind: 6mph
Humidity: 89%   Direction: 290°WNW
Pressure: 30.06"   Gusts: NA
Location:  39.06°N, 81.4°W
Report Text: KPKB 271053Z AUTO 29005KT 5SM BR BKN008 OVC015 01/M01 A3006 RMK AO2 CIG 005V011 SLP187 T00111006
Loading
Personal Weather Stations






























Interactive Weather Map New forecast layout! Learn more

10-Day Weather Forecast

Advertisements
Track Severe Weather on mobile